Time,TemperatureF,DewpointF,PressureIn,WindDirection,WindDirectionDegrees,WindSpeedMPH,WindSpeedGustMPH,Humidity,HourlyPrecipIn,Conditions,Clouds,dailyrainin,SoftwareType,DateUTC
2013-01-10 00:00:00,42.0,37.8,0.00,West,270,9.2,9.2,85,0.00,CLR,CLR,0.00,WeatherDisplay:10.37,2013-01-10 05:00:00,
2013-01-10 00:02:00,42.0,37.5,0.00,WSW,258,9.2,9.2,84,0.00,CLR,CLR,0.00,WeatherDisplay:10.37,2013-01-10 05:02:00,
2013-01-10 00:04:00,42.0,37.5,0.00,ESE,110,9.2,9.2,84,0.00,CLR,CLR,0.00,WeatherDisplay:10.37,2013-01-10 05:04:00,
2013-01-10 00:09:00,41.9,37.4,0.00,SW,224,9.4,9.4,84,0.00,CLR,CLR,0.00,WeatherDisplay:10.37,2013-01-10 05:09:00,
2013-01-10 00:13:00,41.9,37.1,0.00,West,264,10.4,10.4,83,0.00,CLR,CLR,0.00,WeatherDisplay:10.37,2013-01-10 05:13:00,
2013-01-10 00:18:00,41.9,37.1,0.00,South,184,11.5,11.5,83,0.00,CLR,CLR,0.00,WeatherDisplay:10.37,2013-01-10 05:18:00,
2013-01-10 00:24:00,41.9,37.1,0.00,WSW,258,10.4,10.4,83,0.00,CLR,CLR,0.00,WeatherDisplay:10.37,2013-01-10 05:24:00,
2013-01-10 00:29:00,41.8,37.0,0.00,WSW,254,11.5,11.5,83,0.00,CLR,CLR,0.00,WeatherDisplay:10.37,2013-01-10 05:29:00,
2013-01-10 00:34:00,41.9,36.8,0.00,SSW,213,10.4,10.4,82,0.00,CLR,CLR,0.00,WeatherDisplay:10.37,2013-01-10 05:34:00,
2013-01-10 00:39:00,41.9,36.8,0.00,WNW,287,9.2,9.2,82,0.00,CLR,CLR,0.00,WeatherDisplay:10.37,2013-01-10 05:39:00,
2013-01-10 00:44:00,41.8,36.7,0.00,NW,311,6.9,6.9,82,0.00,CLR,CLR,0.00,WeatherDisplay:10.37,2013-01-10 05:44:00,
2013-01-10 00:50:00,41.8,36.7,0.00,West,263,11.5,11.5,82,0.00,CLR,CLR,0.00,WeatherDisplay:10.37,2013-01-10 05:50:00,
2013-01-10 00:55:00,41.6,36.5,0.00,WSW,258,10.4,10.4,82,0.00,CLR,CLR,0.00,WeatherDisplay:10.37,2013-01-10 05:55:00,
2013-01-10 01:00:00,41.7,36.3,0.00,SSW,199,11.5,11.5,81,0.00,CLR,CLR,0.00,WeatherDisplay:10.37,2013-01-10 06:00:00,
2013-01-10 01:06:00,41.8,36.4,0.00,East,97,12.7,12.7,81,0.00,BKN,BKN,0.00,WeatherDisplay:10.37,2013-01-10 06:06:00,
2013-01-10 01:11:00,41.8,36.1,0.00,East,95,9.2,9.2,80,0.00,BKN,BKN,0.00,WeatherDisplay:10.37,2013-01-10 06:11:00,
2013-01-10 01:16:00,41.8,36.1,0.00,WSW,247,15.0,15.0,80,0.00,BKN,BKN,0.00,WeatherDisplay:10.37,2013-01-10 06:16:00,
2013-01-10 01:21:00,41.9,35.9,0.00,West,261,20.7,20.7,79,0.00,BKN,BKN,0.00,WeatherDisplay:10.37,2013-01-10 06:21:00,
2013-01-10 01:26:00,42.1,35.7,0.00,SW,229,23.0,23.0,78,0.00,BKN,BKN,0.00,WeatherDisplay:10.37,2013-01-10 06:26:00,
2013-01-10 01:32:00,42.4,35.7,0.00,WNW,284,20.7,20.7,77,0.00,BKN,BKN,0.00,WeatherDisplay:10.37,2013-01-10 06:32:00,
2013-01-10 01:37:00,42.5,35.5,0.00,WSW,258,13.8,13.8,76,0.00,BKN,BKN,0.00,WeatherDisplay:10.37,2013-01-10 06:37:00,
2013-01-10 01:42:00,42.6,35.2,0.00,WSW,257,20.7,20.7,75,0.00,BKN,BKN,0.00,WeatherDisplay:10.37,2013-01-10 06:42:00,
2013-01-10 01:47:00,42.8,35.1,0.00,SW,230,19.6,19.6,74,0.00,BKN,BKN,0.00,WeatherDisplay:10.37,2013-01-10 06:47:00,
2013-01-10 01:53:00,42.9,35.2,0.00,WNW,298,27.6,27.6,74,0.00,BKN,BKN,0.00,WeatherDisplay:10.37,2013-01-10 06:53:00,
2013-01-10 01:58:00,43.2,35.5,0.00,West,267,19.8,19.8,74,0.00,BKN,BKN,0.00,WeatherDisplay:10.37,2013-01-10 06:58:00,
2013-01-10 02:03:00,43.3,35.6,0.00,WSW,258,23.0,23.0,74,0.00,CLR,CLR,0.00,WeatherDisplay:10.37,2013-01-10 07:03:00,
2013-01-10 02:09:00,43.4,35.7,0.00,WSW,247,25.3,25.3,74,0.00,CLR,CLR,0.00,WeatherDisplay:10.37,2013-01-10 07:09:00,
2013-01-10 02:14:00,43.3,35.9,0.00,WNW,282,10.4,10.4,75,0.00,CLR,CLR,0.00,WeatherDisplay:10.37,2013-01-10 07:14:00,
2013-01-10 02:19:00,43.1,35.7,0.00,WSW,254,13.8,13.8,75,0.00,CLR,CLR,0.00,WeatherDisplay:10.37,2013-01-10 07:19:00,
2013-01-10 02:24:00,43.0,35.3,0.00,West,274,24.2,24.2,74,0.00,CLR,CLR,0.00,WeatherDisplay:10.37,2013-01-10 07:24:00,
2013-01-10 02:30:00,42.7,35.0,0.00,WSW,254,24.2,24.2,74,0.00,CLR,CLR,0.00,WeatherDisplay:10.37,2013-01-10 07:30:00,
2013-01-10 02:35:00,42.6,34.9,0.00,West,271,32.2,32.2,74,0.00,CLR,CLR,0.00,WeatherDisplay:10.37,2013-01-10 07:35:00,
2013-01-10 02:40:00,42.4,34.7,0.00,SW,236,24.7,24.7,74,0.00,CLR,CLR,0.00,WeatherDisplay:10.37,2013-01-10 07:40:00,
2013-01-10 02:45:00,42.3,34.6,0.00,West,275,12.0,32.0,74,0.00,CLR,CLR,0.00,WeatherDisplay:10.37,2013-01-10 07:45:00,
2013-01-10 02:50:00,42.1,34.4,0.00,WSW,258,19.6,19.6,74,0.00,CLR,CLR,0.00,WeatherDisplay:10.37,2013-01-10 07:50:00,
2013-01-10 02:56:00,42.0,34.3,0.00,WNW,289,19.6,19.6,74,0.00,CLR,CLR,0.00,WeatherDisplay:10.37,2013-01-10 07:56:00,
2013-01-10 03:01:00,41.9,34.6,0.00,SE,130,15.0,15.0,75,0.00,FEW,FEW,0.00,WeatherDisplay:10.37,2013-01-10 08:01:00,
2013-01-10 03:07:00,41.8,34.5,0.00,West,267,13.8,13.8,75,0.00,FEW,FEW,0.00,WeatherDisplay:10.37,2013-01-10 08:07:00,
2013-01-10 03:12:00,41.7,34.0,0.00,West,263,28.8,28.8,74,0.00,FEW,FEW,0.00,WeatherDisplay:10.37,2013-01-10 08:12:00,
2013-01-10 03:17:00,41.7,34.0,0.00,WSW,239,21.0,21.0,74,0.00,FEW,FEW,0.00,WeatherDisplay:10.37,2013-01-10 08:17:00,
2013-01-10 03:22:00,41.7,34.0,0.00,WSW,254,20.9,20.9,74,0.00,FEW,FEW,0.00,WeatherDisplay:10.37,2013-01-10 08:22:00,
2013-01-10 03:27:00,41.7,34.0,0.00,NW,315,19.6,19.6,74,0.00,FEW,FEW,0.00,WeatherDisplay:10.37,2013-01-10 08:27:00,
2013-01-10 03:33:00,41.6,33.9,0.00,West,263,20.7,20.7,74,0.00,FEW,FEW,0.00,WeatherDisplay:10.37,2013-01-10 08:33:00,
2013-01-10 03:38:00,41.5,33.8,0.00,WSW,251,18.4,18.4,74,0.00,FEW,FEW,0.00,WeatherDisplay:10.37,2013-01-10 08:38:00,
2013-01-10 03:43:00,41.5,34.2,0.00,West,272,12.7,12.7,75,0.00,FEW,FEW,0.00,WeatherDisplay:10.37,2013-01-10 08:43:00,
2013-01-10 03:48:00,41.4,33.7,0.00,NW,305,17.3,17.3,74,0.00,FEW,FEW,0.00,WeatherDisplay:10.37,2013-01-10 08:48:00,
2013-01-10 03:54:00,41.4,33.7,0.00,WSW,258,23.0,23.0,74,0.00,FEW,FEW,0.00,WeatherDisplay:10.37,2013-01-10 08:54:00,
2013-01-10 03:59:00,41.3,33.6,0.00,West,272,17.3,17.3,74,0.00,FEW,FEW,0.00,WeatherDisplay:10.37,2013-01-10 08:59:00,
2013-01-10 04:04:00,41.4,33.7,0.00,WNW,287,15.0,15.0,74,0.00,FEW,FEW,0.00,WeatherDisplay:10.37,2013-01-10 09:04:00,
2013-01-10 04:09:00,41.3,33.6,0.00,WNW,301,21.9,21.9,74,0.00,FEW,FEW,0.00,WeatherDisplay:10.37,2013-01-10 09:09:00,
2013-01-10 04:14:00,41.3,33.6,0.00,WSW,247,16.1,16.1,74,0.00,FEW,FEW,0.00,WeatherDisplay:10.37,2013-01-10 09:14:00,
2013-01-10 04:20:00,41.2,33.5,0.00,West,261,22.5,22.5,74,0.00,FEW,FEW,0.00,WeatherDisplay:10.37,2013-01-10 09:20:00,
2013-01-10 04:25:00,41.1,33.1,0.00,WSW,246,19.6,19.6,73,0.00,FEW,FEW,0.00,WeatherDisplay:10.37,2013-01-10 09:25:00,
2013-01-10 04:30:00,41.1,33.1,0.00,West,278,21.9,21.9,73,0.00,FEW,FEW,0.00,WeatherDisplay:10.37,2013-01-10 09:30:00,
2013-01-10 04:36:00,41.1,33.1,0.00,West,267,13.8,13.8,73,0.00,FEW,FEW,0.00,WeatherDisplay:10.37,2013-01-10 09:36:00,
2013-01-10 04:41:00,41.0,33.3,0.00,WSW,257,15.0,15.0,74,0.00,FEW,FEW,0.00,WeatherDisplay:10.37,2013-01-10 09:41:00,
2013-01-10 04:46:00,40.9,33.2,0.00,NW,318,12.7,12.7,74,0.00,FEW,FEW,0.00,WeatherDisplay:10.37,2013-01-10 09:46:00,
2013-01-10 04:52:00,40.8,33.2,0.00,West,264,16.1,16.1,74,0.00,FEW,FEW,0.00,WeatherDisplay:10.37,2013-01-10 09:52:00,
2013-01-10 04:57:00,40.7,33.1,0.00,West,260,16.8,16.8,74,0.00,FEW,FEW,0.00,WeatherDisplay:10.37,2013-01-10 09:57:00,
2013-01-10 05:02:00,40.7,33.1,0.00,WSW,256,11.5,11.5,74,0.00,CLR,CLR,0.00,WeatherDisplay:10.37,2013-01-10 10:02:00,
2013-01-10 05:08:00,40.6,33.0,0.00,SW,236,19.6,19.6,74,0.00,CLR,CLR,0.00,WeatherDisplay:10.37,2013-01-10 10:08:00,
2013-01-10 05:13:00,40.4,32.8,0.00,West,260,9.2,9.2,74,0.00,CLR,CLR,0.00,WeatherDisplay:10.37,2013-01-10 10:13:00,
2013-01-10 05:18:00,40.3,33.0,0.00,WSW,258,11.1,11.1,75,0.00,CLR,CLR,0.00,WeatherDisplay:10.37,2013-01-10 10:18:00,
2013-01-10 05:23:00,40.3,33.0,0.00,NW,306,12.7,12.7,75,0.00,CLR,CLR,0.00,WeatherDisplay:10.37,2013-01-10 10:23:00,
2013-01-10 05:29:00,40.2,32.9,0.00,WSW,237,5.1,5.1,75,0.00,CLR,CLR,0.00,WeatherDisplay:10.37,2013-01-10 10:29:00,
2013-01-10 05:34:00,40.1,32.8,0.00,West,268,8.1,8.1,75,0.00,CLR,CLR,0.00,WeatherDisplay:10.37,2013-01-10 10:34:00,
2013-01-10 05:39:00,40.1,32.8,0.00,West,264,11.5,11.5,75,0.00,CLR,CLR,0.00,WeatherDisplay:10.37,2013-01-10 10:39:00,
2013-01-10 05:45:00,40.0,32.7,0.00,NW,308,8.1,8.1,75,0.00,CLR,CLR,0.00,WeatherDisplay:10.37,2013-01-10 10:45:00,
2013-01-10 05:50:00,40.0,33.0,0.00,WNW,299,6.8,6.8,76,0.00,CLR,CLR,0.00,WeatherDisplay:10.37,2013-01-10 10:50:00,
2013-01-10 05:55:00,39.8,32.8,0.00,NW,308,5.8,5.8,76,0.00,CLR,CLR,0.00,WeatherDisplay:10.37,2013-01-10 10:55:00,
2013-01-10 06:01:00,39.7,32.8,0.00,WNW,289,3.5,3.5,76,0.00,CLR,CLR,0.00,WeatherDisplay:10.37,2013-01-10 11:01:00,
2013-01-10 06:06:00,39.6,32.7,0.00,West,261,4.1,4.1,76,0.00,CLR,CLR,0.00,WeatherDisplay:10.37,2013-01-10 11:06:00,
2013-01-10 06:11:00,39.5,32.9,0.00,NW,305,4.6,4.6,77,0.00,CLR,CLR,0.00,WeatherDisplay:10.37,2013-01-10 11:11:00,
2013-01-10 06:16:00,39.4,32.8,0.00,WNW,285,3.5,3.5,77,0.00,CLR,CLR,0.00,WeatherDisplay:10.37,2013-01-10 11:16:00,
2013-01-10 06:21:00,39.3,33.0,0.00,WNW,295,2.9,2.9,78,0.00,CLR,CLR,0.00,WeatherDisplay:10.37,2013-01-10 11:21:00,
2013-01-10 06:27:00,39.2,32.9,0.00,WNW,295,5.8,5.8,78,0.00,CLR,CLR,0.00,WeatherDisplay:10.37,2013-01-10 11:27:00,
2013-01-10 06:32:00,39.2,32.9,0.00,WSW,258,6.9,6.9,78,0.00,CLR,CLR,0.00,WeatherDisplay:10.37,2013-01-10 11:32:00,
2013-01-10 06:37:00,39.0,32.7,0.00,West,268,10.4,10.4,78,0.00,CLR,CLR,0.00,WeatherDisplay:10.37,2013-01-10 11:37:00,
2013-01-10 06:42:00,39.0,32.7,0.00,NW,316,8.1,8.1,78,0.00,CLR,CLR,0.00,WeatherDisplay:10.37,2013-01-10 11:42:00,
2013-01-10 06:48:00,38.9,32.6,0.00,WSW,250,10.4,10.4,78,0.00,CLR,CLR,0.00,WeatherDisplay:10.37,2013-01-10 11:48:00,
2013-01-10 06:53:00,38.7,32.4,0.00,West,278,5.8,5.8,78,0.00,CLR,CLR,0.00,WeatherDisplay:10.37,2013-01-10 11:53:00,
2013-01-10 06:58:00,38.7,32.4,0.00,WSW,243,9.2,9.2,78,0.00,CLR,CLR,0.00,WeatherDisplay:10.37,2013-01-10 11:58:00,
2013-01-10 07:04:00,38.5,32.2,0.00,West,274,9.2,9.2,78,0.00,CLR,CLR,0.00,WeatherDisplay:10.37,2013-01-10 12:04:00,
2013-01-10 07:09:00,38.4,32.1,0.00,WSW,250,9.2,9.2,78,0.00,CLR,CLR,0.00,WeatherDisplay:10.37,2013-01-10 12:09:00,
2013-01-10 07:14:00,38.4,32.1,0.00,West,260,5.8,5.8,78,0.00,CLR,CLR,0.00,WeatherDisplay:10.37,2013-01-10 12:14:00,
2013-01-10 07:19:00,38.4,32.5,0.00,WNW,292,3.7,3.7,79,0.00,CLR,CLR,0.00,WeatherDisplay:10.37,2013-01-10 12:19:00,
2013-01-10 07:25:00,38.3,32.4,0.00,NW,309,1.2,0.0,79,0.00,CLR,CLR,0.00,WeatherDisplay:10.37,2013-01-10 12:25:00,
2013-01-10 07:30:00,38.2,32.3,0.00,WNW,291,3.5,3.5,79,0.00,CLR,CLR,0.00,WeatherDisplay:10.37,2013-01-10 12:30:00,
2013-01-10 07:35:00,38.1,32.2,0.00,West,270,5.8,5.8,79,0.00,CLR,CLR,0.00,WeatherDisplay:10.37,2013-01-10 12:35:00,
2013-01-10 07:40:00,38.1,32.2,0.00,WNW,302,4.6,4.6,79,0.00,CLR,CLR,0.00,WeatherDisplay:10.37,2013-01-10 12:40:00,
2013-01-10 07:45:00,38.0,32.4,0.00,East,85,5.8,5.8,80,0.00,CLR,CLR,0.00,WeatherDisplay:10.37,2013-01-10 12:45:00,
2013-01-10 07:51:00,37.9,32.3,0.00,West,265,5.8,5.8,80,0.00,CLR,CLR,0.00,WeatherDisplay:10.37,2013-01-10 12:51:00,
2013-01-10 07:56:00,37.9,32.3,0.00,SW,215,4.6,4.6,80,0.00,CLR,CLR,0.00,WeatherDisplay:10.37,2013-01-10 12:56:00,
2013-01-10 08:01:00,37.8,32.2,0.00,West,268,5.8,5.8,80,0.00,CLR,CLR,0.00,WeatherDisplay:10.37,2013-01-10 13:01:00,
2013-01-10 08:06:00,37.9,32.0,0.00,WNW,282,8.1,8.1,79,0.00,CLR,CLR,0.00,WeatherDisplay:10.37,2013-01-10 13:06:00,
2013-01-10 08:12:00,37.9,31.7,0.00,WSW,248,8.1,8.1,78,0.00,CLR,CLR,0.00,WeatherDisplay:10.37,2013-01-10 13:12:00,
2013-01-10 08:17:00,37.9,31.7,0.00,West,261,6.9,6.9,78,0.00,CLR,CLR,0.00,WeatherDisplay:10.37,2013-01-10 13:17:00,
2013-01-10 08:22:00,37.9,31.7,0.00,WSW,250,9.2,9.2,78,0.00,CLR,CLR,0.00,WeatherDisplay:10.37,2013-01-10 13:22:00,
2013-01-10 08:28:00,38.0,31.4,0.00,WNW,284,12.7,12.7,77,0.00,CLR,CLR,0.00,WeatherDisplay:10.37,2013-01-10 13:28:00,
2013-01-10 08:33:00,38.1,31.2,0.00,West,280,9.2,9.2,76,0.00,CLR,CLR,0.00,WeatherDisplay:10.37,2013-01-10 13:33:00,
2013-01-10 08:38:00,38.2,31.3,0.00,NW,305,8.1,8.1,76,0.00,CLR,CLR,0.00,WeatherDisplay:10.37,2013-01-10 13:38:00,
2013-01-10 08:43:00,38.3,31.4,0.00,West,265,8.1,8.1,76,0.00,CLR,CLR,0.00,WeatherDisplay:10.37,2013-01-10 13:43:00,
2013-01-10 08:48:00,38.3,31.4,0.00,West,272,11.5,11.5,76,0.00,CLR,CLR,0.00,WeatherDisplay:10.37,2013-01-10 13:48:00,
2013-01-10 08:53:00,38.4,31.2,0.00,WSW,251,9.2,9.2,75,0.00,CLR,CLR,0.00,WeatherDisplay:10.37,2013-01-10 13:53:00,
2013-01-10 08:58:00,38.5,31.3,0.00,West,281,15.0,15.0,75,0.00,CLR,CLR,0.00,WeatherDisplay:10.37,2013-01-10 13:58:00,
2013-01-10 09:04:00,38.5,31.3,0.00,West,261,16.1,16.1,75,0.00,CLR,CLR,0.00,WeatherDisplay:10.37,2013-01-10 14:04:00,
2013-01-10 09:09:00,38.6,31.4,0.00,NW,311,10.4,10.4,75,0.00,CLR,CLR,0.00,WeatherDisplay:10.37,2013-01-10 14:09:00,
2013-01-10 09:14:00,38.7,31.5,0.00,WNW,301,12.7,12.7,75,0.00,CLR,CLR,0.00,WeatherDisplay:10.37,2013-01-10 14:14:00,
2013-01-10 09:19:00,38.7,31.5,0.00,WNW,287,5.8,5.8,75,0.00,CLR,CLR,0.00,WeatherDisplay:10.37,2013-01-10 14:19:00,
2013-01-10 09:24:00,38.8,31.2,0.00,West,275,8.1,8.1,74,0.00,CLR,CLR,0.00,WeatherDisplay:10.37,2013-01-10 14:24:00,
2013-01-10 09:29:00,38.8,31.2,0.00,WSW,243,9.4,9.4,74,0.00,CLR,CLR,0.00,WeatherDisplay:10.37,2013-01-10 14:29:00,
2013-01-10 09:34:00,38.9,31.3,0.00,WSW,244,12.7,12.7,74,0.00,CLR,CLR,0.00,WeatherDisplay:10.37,2013-01-10 14:34:00,
2013-01-10 09:40:00,39.1,31.5,0.00,WNW,285,9.2,9.2,74,0.00,CLR,CLR,0.00,WeatherDisplay:10.37,2013-01-10 14:40:00,
2013-01-10 09:45:00,39.2,31.6,0.00,WNW,291,11.5,11.5,74,0.00,CLR,CLR,0.00,WeatherDisplay:10.37,2013-01-10 14:45:00,
2013-01-10 09:50:00,39.3,31.4,0.00,WSW,246,11.5,11.5,73,0.00,CLR,CLR,0.00,WeatherDisplay:10.37,2013-01-10 14:50:00,
2013-01-10 09:56:00,39.4,31.5,0.00,West,275,12.7,12.7,73,0.00,CLR,CLR,0.00,WeatherDisplay:10.37,2013-01-10 14:56:00,
2013-01-10 10:01:00,39.5,31.6,0.00,NNW,343,9.2,9.2,73,0.00,CLR,CLR,0.00,WeatherDisplay:10.37,2013-01-10 15:01:00,
2013-01-10 10:06:00,39.6,31.7,0.00,WNW,296,12.7,12.7,73,0.00,CLR,CLR,0.00,WeatherDisplay:10.37,2013-01-10 15:06:00,
2013-01-10 10:11:00,39.7,31.4,0.00,WSW,256,18.4,18.4,72,0.00,CLR,CLR,0.00,WeatherDisplay:10.37,2013-01-10 15:11:00,
2013-01-10 10:16:00,39.9,31.6,0.00,West,261,13.8,13.8,72,0.00,CLR,CLR,0.00,WeatherDisplay:10.37,2013-01-10 15:16:00,
2013-01-10 10:22:00,39.9,31.6,0.00,West,264,12.7,12.7,72,0.00,CLR,CLR,0.00,WeatherDisplay:10.37,2013-01-10 15:22:00,
2013-01-10 10:27:00,40.1,31.8,0.00,NW,305,12.4,12.4,72,0.00,CLR,CLR,0.00,WeatherDisplay:10.37,2013-01-10 15:27:00,
2013-01-10 10:32:00,40.1,31.4,0.00,West,270,11.3,11.3,71,0.00,CLR,CLR,0.00,WeatherDisplay:10.37,2013-01-10 15:32:00,
2013-01-10 10:38:00,40.2,31.5,0.00,WNW,291,16.1,16.1,71,0.00,CLR,CLR,0.00,WeatherDisplay:10.37,2013-01-10 15:38:00,
2013-01-10 10:43:00,40.3,31.6,0.00,WSW,237,11.5,11.5,71,0.00,CLR,CLR,0.00,WeatherDisplay:10.37,2013-01-10 15:43:00,
2013-01-10 10:48:00,40.4,31.7,0.00,West,274,20.7,20.7,71,0.00,CLR,CLR,0.00,WeatherDisplay:10.37,2013-01-10 15:48:00,
2013-01-10 10:53:00,40.5,31.8,0.00,NNW,333,13.8,13.8,71,0.00,CLR,CLR,0.00,WeatherDisplay:10.37,2013-01-10 15:53:00,
2013-01-10 10:58:00,40.6,31.6,0.00,West,272,16.1,16.1,70,0.00,CLR,CLR,0.00,WeatherDisplay:10.37,2013-01-10 15:58:00,
2013-01-10 11:04:00,40.7,31.7,0.00,NW,309,13.8,13.8,70,0.00,CLR,CLR,0.00,WeatherDisplay:10.37,2013-01-10 16:04:00,
2013-01-10 11:09:00,40.8,31.8,0.00,WNW,282,11.5,11.5,70,0.00,CLR,CLR,0.00,WeatherDisplay:10.37,2013-01-10 16:09:00,
2013-01-10 11:15:00,40.8,31.8,0.00,WSW,241,10.4,10.4,70,0.00,CLR,CLR,0.00,WeatherDisplay:10.37,2013-01-10 16:15:00,
2013-01-10 11:20:00,40.8,31.8,0.00,NW,304,13.2,13.2,70,0.00,CLR,CLR,0.00,WeatherDisplay:10.37,2013-01-10 16:20:00,
2013-01-10 11:25:00,40.8,31.8,0.00,NW,309,15.0,15.0,70,0.00,CLR,CLR,0.00,WeatherDisplay:10.37,2013-01-10 16:25:00,
2013-01-10 11:30:00,40.9,31.9,0.00,West,263,17.3,17.3,70,0.00,CLR,CLR,0.00,WeatherDisplay:10.37,2013-01-10 16:30:00,
2013-01-10 11:35:00,41.0,32.0,0.00,West,275,11.1,11.1,70,0.00,CLR,CLR,0.00,WeatherDisplay:10.37,2013-01-10 16:35:00,
2013-01-10 11:40:00,41.1,32.1,0.00,WSW,240,13.8,13.8,70,0.00,CLR,CLR,0.00,WeatherDisplay:10.37,2013-01-10 16:40:00,
2013-01-10 11:46:00,41.2,31.8,0.00,West,275,12.7,12.7,69,0.00,CLR,CLR,0.00,WeatherDisplay:10.37,2013-01-10 16:46:00,
2013-01-10 11:51:00,41.4,32.0,0.00,WNW,284,15.0,15.0,69,0.00,CLR,CLR,0.00,WeatherDisplay:10.37,2013-01-10 16:51:00,
2013-01-10 11:56:00,41.4,32.0,0.00,WNW,294,10.4,10.4,69,0.00,CLR,CLR,0.00,WeatherDisplay:10.37,2013-01-10 16:56:00,
2013-01-10 12:01:00,41.4,32.0,0.00,West,277,13.8,13.8,69,0.00,CLR,CLR,0.00,WeatherDisplay:10.37,2013-01-10 17:01:00,
2013-01-10 12:06:00,41.6,31.8,0.00,West,263,13.8,13.8,68,0.00,CLR,CLR,0.00,WeatherDisplay:10.37,2013-01-10 17:06:00,
2013-01-10 12:12:00,41.7,32.3,0.00,West,265,17.3,17.3,69,0.00,CLR,CLR,0.00,WeatherDisplay:10.37,2013-01-10 17:12:00,
2013-01-10 12:17:00,41.7,31.9,0.00,West,260,13.8,13.8,68,0.00,CLR,CLR,0.00,WeatherDisplay:10.37,2013-01-10 17:17:00,
2013-01-10 12:23:00,41.8,32.0,0.00,West,265,15.0,15.0,68,0.00,CLR,CLR,0.00,WeatherDisplay:10.37,2013-01-10 17:23:00,
2013-01-10 12:28:00,42.0,32.2,0.00,NNW,333,13.8,13.8,68,0.00,CLR,CLR,0.00,WeatherDisplay:10.37,2013-01-10 17:28:00,
2013-01-10 12:33:00,42.1,32.3,0.00,WSW,258,16.1,16.1,68,0.00,CLR,CLR,0.00,WeatherDisplay:10.37,2013-01-10 17:33:00,
2013-01-10 12:38:00,42.1,31.9,0.00,WSW,246,19.6,19.6,67,0.00,CLR,CLR,0.00,WeatherDisplay:10.37,2013-01-10 17:38:00,
2013-01-10 12:43:00,42.3,32.1,0.00,NW,308,18.4,18.4,67,0.00,CLR,CLR,0.00,WeatherDisplay:10.37,2013-01-10 17:43:00,
2013-01-10 12:48:00,42.4,32.2,0.00,West,263,13.8,13.8,67,0.00,CLR,CLR,0.00,WeatherDisplay:10.37,2013-01-10 17:48:00,
2013-01-10 12:54:00,42.4,32.2,0.00,WNW,289,14.7,14.7,67,0.00,CLR,CLR,0.00,WeatherDisplay:10.37,2013-01-10 17:54:00,
2013-01-10 12:59:00,42.5,31.9,0.00,NW,323,11.5,11.5,66,0.00,CLR,CLR,0.00,WeatherDisplay:10.37,2013-01-10 17:59:00,
2013-01-10 13:04:00,42.5,32.3,0.00,West,271,11.5,11.5,67,0.00,CLR,CLR,0.00,WeatherDisplay:10.37,2013-01-10 18:04:00,
2013-01-10 13:09:00,42.6,32.4,0.00,WSW,246,6.9,6.9,67,0.00,CLR,CLR,0.00,WeatherDisplay:10.37,2013-01-10 18:09:00,
2013-01-10 13:15:00,42.7,32.1,0.00,WSW,248,17.3,17.3,66,0.00,CLR,CLR,0.00,WeatherDisplay:10.37,2013-01-10 18:15:00,
2013-01-10 13:20:00,42.8,32.2,0.00,WNW,294,18.4,18.4,66,0.00,CLR,CLR,0.00,WeatherDisplay:10.37,2013-01-10 18:20:00,
2013-01-10 13:25:00,42.9,32.3,0.00,WNW,291,15.0,15.0,66,0.00,CLR,CLR,0.00,WeatherDisplay:10.37,2013-01-10 18:25:00,
2013-01-10 13:30:00,43.0,32.4,0.00,West,281,12.7,12.7,66,0.00,CLR,CLR,0.00,WeatherDisplay:10.37,2013-01-10 18:30:00,
2013-01-10 13:35:00,43.1,32.5,0.00,ENE,71,9.2,9.2,66,0.00,CLR,CLR,0.00,WeatherDisplay:10.37,2013-01-10 18:35:00,
2013-01-10 13:40:00,43.1,32.5,0.00,NW,313,10.4,10.4,66,0.00,CLR,CLR,0.00,WeatherDisplay:10.37,2013-01-10 18:40:00,
2013-01-10 13:46:00,43.1,32.5,0.00,WNW,302,12.7,12.7,66,0.00,CLR,CLR,0.00,WeatherDisplay:10.37,2013-01-10 18:46:00,
2013-01-10 13:51:00,43.3,32.3,0.00,NNW,337,8.9,8.9,65,0.00,CLR,CLR,0.00,WeatherDisplay:10.37,2013-01-10 18:51:00,
2013-01-10 13:56:00,43.2,32.2,0.00,West,265,12.5,12.5,65,0.00,CLR,CLR,0.00,WeatherDisplay:10.37,2013-01-10 18:56:00,
2013-01-10 14:01:00,43.4,32.4,0.00,WNW,294,11.5,11.5,65,0.00,CLR,CLR,0.00,WeatherDisplay:10.37,2013-01-10 19:01:00,
2013-01-10 14:06:00,43.5,32.1,0.00,WSW,248,17.3,17.3,64,0.00,CLR,CLR,0.00,WeatherDisplay:10.37,2013-01-10 19:06:00,
2013-01-10 14:11:00,43.5,32.5,0.00,WNW,294,6.9,6.9,65,0.00,CLR,CLR,0.00,WeatherDisplay:10.37,2013-01-10 19:11:00,
2013-01-10 14:16:00,43.5,32.5,0.00,West,281,9.2,9.2,65,0.00,CLR,CLR,0.00,WeatherDisplay:10.37,2013-01-10 19:16:00,
2013-01-10 14:21:00,43.7,32.7,0.00,West,265,10.4,10.4,65,0.00,CLR,CLR,0.00,WeatherDisplay:10.37,2013-01-10 19:21:00,
2013-01-10 14:27:00,43.7,32.7,0.00,West,275,12.7,12.7,65,0.00,CLR,CLR,0.00,WeatherDisplay:10.37,2013-01-10 19:27:00,
2013-01-10 14:32:00,43.8,32.8,0.00,NNE,16,12.7,12.7,65,0.00,CLR,CLR,0.00,WeatherDisplay:10.37,2013-01-10 19:32:00,
2013-01-10 14:37:00,43.7,32.7,0.00,NW,312,13.8,13.8,65,0.00,CLR,CLR,0.00,WeatherDisplay:10.37,2013-01-10 19:37:00,
2013-01-10 14:42:00,43.9,32.5,0.00,SW,217,16.1,16.1,64,0.00,CLR,CLR,0.00,WeatherDisplay:10.37,2013-01-10 19:42:00,
2013-01-10 14:48:00,43.8,32.4,0.00,SW,229,12.7,12.7,64,0.00,CLR,CLR,0.00,WeatherDisplay:10.37,2013-01-10 19:48:00,
2013-01-10 14:53:00,43.8,32.4,0.00,WNW,288,6.9,6.9,64,0.00,CLR,CLR,0.00,WeatherDisplay:10.37,2013-01-10 19:53:00,
2013-01-10 14:58:00,43.7,32.7,0.00,WNW,285,11.5,11.5,65,0.00,CLR,CLR,0.00,WeatherDisplay:10.37,2013-01-10 19:58:00,
2013-01-10 15:03:00,43.7,32.7,0.00,West,263,14.0,14.0,65,0.00,CLR,CLR,0.00,WeatherDisplay:10.37,2013-01-10 20:03:00,
2013-01-10 15:09:00,43.8,32.8,0.00,WSW,253,11.5,11.5,65,0.00,CLR,CLR,0.00,WeatherDisplay:10.37,2013-01-10 20:09:00,
2013-01-10 15:14:00,43.8,32.4,0.00,West,267,12.7,12.7,64,0.00,CLR,CLR,0.00,WeatherDisplay:10.37,2013-01-10 20:14:00,
2013-01-10 15:19:00,43.8,32.4,0.00,West,268,11.5,11.5,64,0.00,CLR,CLR,0.00,WeatherDisplay:10.37,2013-01-10 20:19:00,
2013-01-10 15:24:00,43.8,32.4,0.00,NW,313,9.2,9.2,64,0.00,CLR,CLR,0.00,WeatherDisplay:10.37,2013-01-10 20:24:00,
2013-01-10 15:30:00,43.8,32.8,0.00,WNW,287,9.4,9.4,65,0.00,CLR,CLR,0.00,WeatherDisplay:10.37,2013-01-10 20:30:00,
2013-01-10 15:35:00,43.7,32.7,0.00,West,275,13.8,13.8,65,0.00,CLR,CLR,0.00,WeatherDisplay:10.37,2013-01-10 20:35:00,
2013-01-10 15:40:00,43.7,32.7,0.00,NW,313,9.2,9.2,65,0.00,CLR,CLR,0.00,WeatherDisplay:10.37,2013-01-10 20:40:00,
2013-01-10 15:46:00,43.6,32.6,0.00,WNW,287,11.5,11.5,65,0.00,CLR,CLR,0.00,WeatherDisplay:10.37,2013-01-10 20:46:00,
2013-01-10 15:51:00,43.6,32.6,0.00,WNW,287,8.1,8.1,65,0.00,CLR,CLR,0.00,WeatherDisplay:10.37,2013-01-10 20:51:00,
2013-01-10 15:56:00,43.5,32.5,0.00,WSW,258,10.4,10.4,65,0.00,CLR,CLR,0.00,WeatherDisplay:10.37,2013-01-10 20:56:00,
2013-01-10 16:01:00,43.5,32.5,0.00,West,281,7.0,18.0,65,0.00,CLR,CLR,0.00,WeatherDisplay:10.37,2013-01-10 21:01:00,
2013-01-10 16:06:00,43.5,32.5,0.00,WNW,289,5.3,5.3,65,0.00,CLR,CLR,0.00,WeatherDisplay:10.37,2013-01-10 21:06:00,
2013-01-10 16:11:00,43.4,32.4,0.00,NW,304,3.5,3.5,65,0.00,CLR,CLR,0.00,WeatherDisplay:10.37,2013-01-10 21:11:00,
2013-01-10 16:17:00,43.3,32.7,0.00,WNW,292,6.9,6.9,66,0.00,CLR,CLR,0.00,WeatherDisplay:10.37,2013-01-10 21:17:00,
2013-01-10 16:22:00,43.1,32.5,0.00,WNW,287,10.4,10.4,66,0.00,CLR,CLR,0.00,WeatherDisplay:10.37,2013-01-10 21:22:00,
2013-01-10 16:27:00,43.1,32.5,0.00,NW,319,6.9,6.9,66,0.00,CLR,CLR,0.00,WeatherDisplay:10.37,2013-01-10 21:27:00,
2013-01-10 16:32:00,43.0,32.4,0.00,WSW,250,4.6,4.6,66,0.00,CLR,CLR,0.00,WeatherDisplay:10.37,2013-01-10 21:32:00,
2013-01-10 16:38:00,42.8,32.2,0.00,West,275,3.4,3.4,66,0.00,CLR,CLR,0.00,WeatherDisplay:10.37,2013-01-10 21:38:00,
2013-01-10 16:43:00,42.8,32.2,0.00,WSW,258,5.8,5.8,66,0.00,CLR,CLR,0.00,WeatherDisplay:10.37,2013-01-10 21:43:00,
2013-01-10 16:48:00,42.6,32.4,0.00,WSW,258,8.1,8.1,67,0.00,CLR,CLR,0.00,WeatherDisplay:10.37,2013-01-10 21:48:00,
2013-01-10 16:53:00,42.5,32.3,0.00,North,352,8.1,8.1,67,0.00,CLR,CLR,0.00,WeatherDisplay:10.37,2013-01-10 21:53:00,
2013-01-10 16:59:00,42.5,32.3,0.00,NW,323,5.7,5.7,67,0.00,CLR,CLR,0.00,WeatherDisplay:10.37,2013-01-10 21:59:00,
2013-01-10 17:04:00,42.4,32.6,0.00,NW,304,6.9,6.9,68,0.00,CLR,CLR,0.00,WeatherDisplay:10.37,2013-01-10 22:04:00,
2013-01-10 17:09:00,42.3,32.1,0.00,West,268,10.4,10.4,67,0.00,CLR,CLR,0.00,WeatherDisplay:10.37,2013-01-10 22:09:00,
2013-01-10 17:14:00,42.3,32.5,0.00,SE,137,5.8,5.8,68,0.00,CLR,CLR,0.00,WeatherDisplay:10.37,2013-01-10 22:14:00,
2013-01-10 17:19:00,42.2,32.4,0.00,NE,38,2.3,2.3,68,0.00,CLR,CLR,0.00,WeatherDisplay:10.37,2013-01-10 22:19:00,
2013-01-10 17:25:00,42.1,32.7,0.00,NNE,27,0.0,0.0,69,0.00,CLR,CLR,0.00,WeatherDisplay:10.37,2013-01-10 22:25:00,
2013-01-10 17:30:00,42.0,32.6,0.00,West,271,8.1,8.1,69,0.00,CLR,CLR,0.00,WeatherDisplay:10.37,2013-01-10 22:30:00,
2013-01-10 17:36:00,41.8,32.4,0.00,NW,319,6.9,6.9,69,0.00,CLR,CLR,0.00,WeatherDisplay:10.37,2013-01-10 22:36:00,
2013-01-10 17:41:00,41.7,32.3,0.00,West,280,5.8,5.8,69,0.00,CLR,CLR,0.00,WeatherDisplay:10.37,2013-01-10 22:41:00,
2013-01-10 17:46:00,41.7,32.3,0.00,WNW,296,2.3,2.3,69,0.00,CLR,CLR,0.00,WeatherDisplay:10.37,2013-01-10 22:46:00,
2013-01-10 17:51:00,41.6,32.2,0.00,SSW,192,3.5,3.5,69,0.00,CLR,CLR,0.00,WeatherDisplay:10.37,2013-01-10 22:51:00,
2013-01-10 17:56:00,41.6,32.2,0.00,NW,306,2.5,2.5,69,0.00,CLR,CLR,0.00,WeatherDisplay:10.37,2013-01-10 22:56:00,
2013-01-10 18:02:00,41.4,32.3,0.00,WNW,296,4.6,4.6,70,0.00,CLR,CLR,0.00,WeatherDisplay:10.37,2013-01-10 23:02:00,
2013-01-10 18:07:00,41.3,32.2,0.00,North,6,2.3,2.3,70,0.00,CLR,CLR,0.00,WeatherDisplay:10.37,2013-01-10 23:07:00,
2013-01-10 18:12:00,41.2,32.2,0.00,NW,305,0.0,0.0,70,0.00,CLR,CLR,0.00,WeatherDisplay:10.37,2013-01-10 23:12:00,
2013-01-10 18:17:00,41.1,32.1,0.00,WSW,253,5.8,5.8,70,0.00,CLR,CLR,0.00,WeatherDisplay:10.37,2013-01-10 23:17:00,
2013-01-10 18:22:00,41.0,32.0,0.00,WNW,282,2.3,2.3,70,0.00,CLR,CLR,0.00,WeatherDisplay:10.37,2013-01-10 23:22:00,
2013-01-10 18:28:00,40.9,32.2,0.00,WNW,282,0.0,0.0,71,0.00,CLR,CLR,0.00,WeatherDisplay:10.37,2013-01-10 23:28:00,
2013-01-10 18:33:00,40.8,32.1,0.00,WNW,282,0.0,0.0,71,0.00,CLR,CLR,0.00,WeatherDisplay:10.37,2013-01-10 23:33:00,
2013-01-10 18:38:00,40.7,32.0,0.00,WNW,282,0.0,0.0,71,0.00,CLR,CLR,0.00,WeatherDisplay:10.37,2013-01-10 23:38:00,
2013-01-10 18:43:00,40.5,31.8,0.00,WNW,282,0.0,0.0,71,0.00,CLR,CLR,0.00,WeatherDisplay:10.37,2013-01-10 23:43:00,
2013-01-10 18:48:00,40.3,32.3,0.00,SW,216,0.0,0.0,73,0.00,CLR,CLR,0.00,WeatherDisplay:10.37,2013-01-10 23:48:00,
2013-01-10 18:53:00,40.2,32.6,0.00,SW,216,0.0,0.0,74,0.00,CLR,CLR,0.00,WeatherDisplay:10.37,2013-01-10 23:53:00,
2013-01-10 18:58:00,40.0,32.0,0.00,SW,229,0.0,0.0,73,0.00,CLR,CLR,0.00,WeatherDisplay:10.37,2013-01-10 23:58:00,
2013-01-10 19:04:00,39.8,31.8,0.00,SW,229,0.0,0.0,73,0.00,CLR,CLR,0.00,WeatherDisplay:10.37,2013-01-11 00:04:00,
2013-01-10 19:09:00,39.6,32.0,0.00,SW,229,0.0,0.0,74,0.00,CLR,CLR,0.00,WeatherDisplay:10.37,2013-01-11 00:09:00,
2013-01-10 19:14:00,39.5,31.9,0.00,SW,230,0.0,0.0,74,0.00,CLR,CLR,0.00,WeatherDisplay:10.37,2013-01-11 00:14:00,
2013-01-10 19:19:00,39.5,31.9,0.00,SW,230,0.0,0.0,74,0.00,CLR,CLR,0.00,WeatherDisplay:10.37,2013-01-11 00:19:00,
2013-01-10 19:24:00,39.3,31.7,0.00,WSW,244,2.3,2.3,74,0.00,CLR,CLR,0.00,WeatherDisplay:10.37,2013-01-11 00:24:00,
2013-01-10 19:30:00,38.9,31.3,0.00,WNW,287,3.5,3.5,74,0.00,CLR,CLR,0.00,WeatherDisplay:10.37,2013-01-11 00:30:00,
2013-01-10 19:35:00,38.8,31.2,0.00,West,277,2.3,2.3,74,0.00,CLR,CLR,0.00,WeatherDisplay:10.37,2013-01-11 00:35:00,
2013-01-10 19:40:00,38.7,31.1,0.00,SW,234,3.5,3.5,74,0.00,CLR,CLR,0.00,WeatherDisplay:10.37,2013-01-11 00:40:00,
2013-01-10 19:45:00,38.7,31.5,0.00,SW,227,0.0,0.0,75,0.00,CLR,CLR,0.00,WeatherDisplay:10.37,2013-01-11 00:45:00,
2013-01-10 19:50:00,38.6,31.4,0.00,East,86,0.7,0.0,75,0.00,CLR,CLR,0.00,WeatherDisplay:10.37,2013-01-11 00:50:00,
2013-01-10 19:55:00,38.5,31.3,0.00,East,86,0.0,0.0,75,0.00,CLR,CLR,0.00,WeatherDisplay:10.37,2013-01-11 00:55:00,
2013-01-10 20:00:00,38.4,31.5,0.00,East,86,0.0,0.0,76,0.00,CLR,CLR,0.00,WeatherDisplay:10.37,2013-01-11 01:00:00,
2013-01-10 20:06:00,38.1,31.2,0.00,WSW,248,0.0,0.0,76,0.00,CLR,CLR,0.00,WeatherDisplay:10.37,2013-01-11 01:06:00,
2013-01-10 20:11:00,37.9,31.0,0.00,WSW,248,0.0,0.0,76,0.00,CLR,CLR,0.00,WeatherDisplay:10.37,2013-01-11 01:11:00,
2013-01-10 20:16:00,37.9,31.0,0.00,WSW,254,2.3,2.3,76,0.00,CLR,CLR,0.00,WeatherDisplay:10.37,2013-01-11 01:16:00,
2013-01-10 20:21:00,37.9,31.0,0.00,NW,304,0.0,0.0,76,0.00,CLR,CLR,0.00,WeatherDisplay:10.37,2013-01-11 01:21:00,
2013-01-10 20:27:00,37.8,30.9,0.00,NW,304,0.0,0.0,76,0.00,CLR,CLR,0.00,WeatherDisplay:10.37,2013-01-11 01:27:00,
2013-01-10 20:32:00,37.8,30.9,0.00,NW,304,0.0,0.0,76,0.00,CLR,CLR,0.00,WeatherDisplay:10.37,2013-01-11 01:32:00,
2013-01-10 20:37:00,37.8,30.9,0.00,West,272,2.3,0.0,76,0.00,CLR,CLR,0.00,WeatherDisplay:10.37,2013-01-11 01:37:00,
2013-01-10 20:42:00,37.7,30.8,0.00,West,270,2.3,2.3,76,0.00,CLR,CLR,0.00,WeatherDisplay:10.37,2013-01-11 01:42:00,
2013-01-10 20:48:00,37.6,30.7,0.00,SW,234,3.5,3.5,76,0.00,CLR,CLR,0.00,WeatherDisplay:10.37,2013-01-11 01:48:00,
2013-01-10 20:53:00,37.6,30.7,0.00,WNW,292,0.0,0.0,76,0.00,CLR,CLR,0.00,WeatherDisplay:10.37,2013-01-11 01:53:00,
2013-01-10 20:58:00,37.4,30.5,0.00,West,263,6.9,6.9,76,0.00,CLR,CLR,0.00,WeatherDisplay:10.37,2013-01-11 01:58:00,
2013-01-10 21:03:00,37.2,30.3,0.00,WSW,256,4.6,4.6,76,0.00,CLR,CLR,0.00,WeatherDisplay:10.37,2013-01-11 02:03:00,
2013-01-10 21:09:00,37.2,30.3,0.00,WNW,285,4.6,4.6,76,0.00,CLR,CLR,0.00,WeatherDisplay:10.37,2013-01-11 02:09:00,
2013-01-10 21:14:00,37.2,30.3,0.00,WSW,254,3.5,3.5,76,0.00,CLR,CLR,0.00,WeatherDisplay:10.37,2013-01-11 02:14:00,
2013-01-10 21:19:00,37.1,30.2,0.00,SW,227,0.0,0.0,76,0.00,CLR,CLR,0.00,WeatherDisplay:10.37,2013-01-11 02:19:00,
2013-01-10 21:24:00,37.0,30.5,0.00,ENE,73,0.0,0.1,77,0.00,CLR,CLR,0.00,WeatherDisplay:10.37,2013-01-11 02:24:00,
2013-01-10 21:29:00,37.0,30.5,0.00,West,274,5.0,5.0,77,0.00,CLR,CLR,0.00,WeatherDisplay:10.37,2013-01-11 02:29:00,
2013-01-10 21:34:00,36.9,30.4,0.00,WNW,295,6.0,6.0,77,0.00,CLR,CLR,0.00,WeatherDisplay:10.37,2013-01-11 02:34:00,
2013-01-10 21:39:00,36.9,30.4,0.00,NW,315,8.1,8.1,77,0.00,CLR,CLR,0.00,WeatherDisplay:10.37,2013-01-11 02:39:00,
2013-01-10 21:45:00,36.9,30.4,0.00,WNW,287,1.6,1.6,77,0.00,CLR,CLR,0.00,WeatherDisplay:10.37,2013-01-11 02:45:00,
2013-01-10 21:50:00,36.9,30.4,0.00,WNW,302,0.0,0.0,77,0.00,CLR,CLR,0.00,WeatherDisplay:10.37,2013-01-11 02:50:00,
2013-01-10 21:55:00,36.8,30.3,0.00,WNW,302,0.0,0.0,77,0.00,CLR,CLR,0.00,WeatherDisplay:10.37,2013-01-11 02:55:00,
2013-01-10 22:01:00,36.8,30.6,0.00,WNW,302,0.0,0.0,78,0.00,CLR,CLR,0.00,WeatherDisplay:10.37,2013-01-11 03:01:00,
2013-01-10 22:06:00,36.8,30.6,0.00,WNW,302,0.0,0.0,78,0.00,CLR,CLR,0.00,WeatherDisplay:10.37,2013-01-11 03:06:00,
2013-01-10 22:11:00,36.7,30.5,0.00,West,263,0.0,0.0,78,0.00,CLR,CLR,0.00,WeatherDisplay:10.37,2013-01-11 03:11:00,
2013-01-10 22:16:00,36.6,30.4,0.00,West,263,0.0,0.0,78,0.00,CLR,CLR,0.00,WeatherDisplay:10.37,2013-01-11 03:16:00,
2013-01-10 22:21:00,36.6,30.4,0.00,West,275,1.4,1.4,78,0.00,CLR,CLR,0.00,WeatherDisplay:10.37,2013-01-11 03:21:00,
2013-01-10 22:27:00,36.5,30.3,0.00,North,349,3.5,3.5,78,0.00,CLR,CLR,0.00,WeatherDisplay:10.37,2013-01-11 03:27:00,
2013-01-10 22:32:00,36.5,30.3,0.00,West,274,1.4,1.4,78,0.00,CLR,CLR,0.00,WeatherDisplay:10.37,2013-01-11 03:32:00,
2013-01-10 22:37:00,36.4,30.2,0.00,West,274,0.0,0.0,78,0.00,CLR,CLR,0.00,WeatherDisplay:10.37,2013-01-11 03:37:00,
2013-01-10 22:42:00,36.4,30.2,0.00,NW,305,0.0,0.0,78,0.00,CLR,CLR,0.00,WeatherDisplay:10.37,2013-01-11 03:42:00,
2013-01-10 22:47:00,36.4,30.2,0.00,NNW,347,1.2,0.0,78,0.00,CLR,CLR,0.00,WeatherDisplay:10.37,2013-01-11 03:47:00,
2013-01-10 22:53:00,36.3,30.1,0.00,North,349,3.5,3.5,78,0.00,CLR,CLR,0.00,WeatherDisplay:10.37,2013-01-11 03:53:00,
2013-01-10 22:58:00,36.3,30.1,0.00,West,272,3.5,3.5,78,0.00,CLR,CLR,0.00,WeatherDisplay:10.37,2013-01-11 03:58:00,
2013-01-10 23:03:00,36.2,30.0,0.00,WSW,240,0.0,0.0,78,0.00,CLR,CLR,0.00,WeatherDisplay:10.37,2013-01-11 04:03:00,
2013-01-10 23:09:00,36.2,30.0,0.00,NW,312,0.0,0.0,78,0.00,CLR,CLR,0.00,WeatherDisplay:10.37,2013-01-11 04:09:00,
2013-01-10 23:14:00,36.1,29.9,0.00,NNW,329,1.2,0.0,78,0.00,CLR,CLR,0.00,WeatherDisplay:10.37,2013-01-11 04:14:00,
2013-01-10 23:19:00,36.0,30.1,0.00,WNW,299,0.0,0.0,79,0.00,CLR,CLR,0.00,WeatherDisplay:10.37,2013-01-11 04:19:00,
2013-01-10 23:25:00,36.0,29.8,0.00,NW,326,0.0,0.0,78,0.00,CLR,CLR,0.00,WeatherDisplay:10.37,2013-01-11 04:25:00,
2013-01-10 23:30:00,35.9,30.0,0.00,NNW,333,0.7,0.7,79,0.00,CLR,CLR,0.00,WeatherDisplay:10.37,2013-01-11 04:30:00,
2013-01-10 23:35:00,35.8,29.9,0.00,WNW,284,0.0,0.0,79,0.00,CLR,CLR,0.00,WeatherDisplay:10.37,2013-01-11 04:35:00,
2013-01-10 23:40:00,35.8,29.9,0.00,WNW,299,0.0,0.0,79,0.00,CLR,CLR,0.00,WeatherDisplay:10.37,2013-01-11 04:40:00,
2013-01-10 23:46:00,35.7,29.8,0.00,WNW,295,1.0,3.0,79,0.00,CLR,CLR,0.00,WeatherDisplay:10.37,2013-01-11 04:46:00,
2013-01-10 23:51:00,35.7,29.8,0.00,WNW,298,0.9,0.0,79,0.00,CLR,CLR,0.00,WeatherDisplay:10.37,2013-01-11 04:51:00,
2013-01-10 23:56:00,35.6,29.7,0.00,SW,236,2.3,2.3,79,0.00,CLR,CLR,0.00,WeatherDisplay:10.37,2013-01-11 04:56:00,